createdAt,value
2023-02-04T00:00:17.319Z,9.57
2023-02-04T00:02:45.836Z,9.80
2023-02-04T00:05:14.781Z,8.68
2023-02-04T00:07:45.220Z,10.23
2023-02-04T00:10:12.692Z,8.65
2023-02-04T00:12:40.107Z,8.82
2023-02-04T00:15:08.500Z,9.18
2023-02-04T00:17:35.916Z,10.00
2023-02-04T00:20:04.849Z,9.85
2023-02-04T00:22:32.273Z,8.40
2023-02-04T00:25:07.163Z,9.27
2023-02-04T00:27:34.578Z,9.05
2023-02-04T00:30:02.064Z,8.18
2023-02-04T00:32:29.358Z,10.10
2023-02-04T00:34:57.148Z,9.13
2023-02-04T00:37:24.733Z,9.25
2023-02-04T00:39:52.021Z,7.50
2023-02-04T00:42:19.334Z,7.40
2023-02-04T00:44:46.664Z,8.65
2023-02-04T00:47:14.034Z,9.43
2023-02-04T00:49:41.548Z,9.63
2023-02-04T00:52:08.970Z,9.38
2023-02-04T00:54:36.290Z,8.80
2023-02-04T00:57:03.735Z,8.32
2023-02-04T00:59:31.341Z,8.25
2023-02-04T01:01:58.947Z,10.23
2023-02-04T01:04:28.098Z,11.50
2023-02-04T01:06:55.541Z,7.97
2023-02-04T01:09:24.592Z,9.70
2023-02-04T01:11:51.954Z,9.23
2023-02-04T01:14:19.448Z,9.50
2023-02-04T01:16:46.856Z,10.23
2023-02-04T01:19:14.741Z,9.45
2023-02-04T01:21:42.104Z,9.15
2023-02-04T01:24:10.992Z,8.88
2023-02-04T01:26:58.432Z,8.43
2023-02-04T01:29:26.293Z,9.90
2023-02-04T01:31:53.657Z,9.45
2023-02-04T01:34:21.251Z,8.57
2023-02-04T01:36:49.079Z,12.13
2023-02-04T01:39:18.164Z,9.70
2023-02-04T01:41:47.532Z,10.77
2023-02-04T01:44:15.255Z,11.48
2023-02-04T01:46:43.274Z,10.52
2023-02-04T01:49:11.365Z,14.07
2023-02-04T01:51:39.830Z,11.27
2023-02-04T01:54:12.867Z,9.80
2023-02-04T01:56:44.524Z,11.35
2023-02-04T01:59:14.088Z,10.88
2023-02-04T02:01:43.314Z,9.85
2023-02-04T02:04:14.111Z,9.57
2023-02-04T02:06:49.215Z,10.82
2023-02-04T02:09:16.963Z,11.05
2023-02-04T02:11:45.978Z,9.55
2023-02-04T02:14:14.516Z,10.85
2023-02-04T02:16:41.934Z,11.07
2023-02-04T02:19:15.232Z,12.02
2023-02-04T02:21:59.800Z,11.35
2023-02-04T02:24:30.027Z,10.85
2023-02-04T02:27:05.468Z,11.63
2023-02-04T02:29:33.214Z,11.05
2023-02-04T02:32:01.095Z,11.57
2023-02-04T02:34:30.243Z,11.60
2023-02-04T02:36:59.493Z,10.80
2023-02-04T02:39:27.387Z,11.70
2023-02-04T02:41:56.554Z,12.20
2023-02-04T02:44:27.086Z,12.18
2023-02-04T02:46:55.356Z,13.20
2023-02-04T02:49:23.302Z,11.93
2023-02-04T02:51:50.976Z,12.30
2023-02-04T02:54:24.402Z,9.32
2023-02-04T02:56:54.293Z,13.63
2023-02-04T02:59:23.704Z,10.82
2023-02-04T03:04:19.279Z,13.15
2023-02-04T03:06:46.785Z,12.40
2023-02-04T03:09:14.280Z,11.65
2023-02-04T03:11:41.779Z,13.10
2023-02-04T03:14:09.411Z,12.55
2023-02-04T03:16:38.001Z,13.38
2023-02-04T03:19:07.478Z,12.90
2023-02-04T03:21:35.802Z,13.43
2023-02-04T03:24:04.917Z,12.07
2023-02-04T03:26:32.677Z,12.00
2023-02-04T03:29:00.640Z,13.15
2023-02-04T03:31:28.377Z,12.65
2023-02-04T03:33:55.570Z,10.57
2023-02-04T03:36:22.862Z,9.60
2023-02-04T03:38:52.183Z,10.32
2023-02-04T03:41:19.445Z,9.98
2023-02-04T03:43:46.659Z,9.20
2023-02-04T03:46:13.963Z,9.40
2023-02-04T03:48:41.300Z,9.77
2023-02-04T03:51:08.570Z,9.27
2023-02-04T03:53:35.865Z,12.18
2023-02-04T03:56:03.231Z,11.20
2023-02-04T03:58:30.507Z,10.98
2023-02-04T04:00:57.825Z,9.70
2023-02-04T04:03:25.063Z,10.93
2023-02-04T04:05:52.300Z,11.85
2023-02-04T04:08:19.976Z,11.45
2023-02-04T04:10:47.092Z,10.30
2023-02-04T04:13:14.777Z,11.73
2023-02-04T04:15:42.231Z,10.70
2023-02-04T04:18:09.538Z,12.00
2023-02-04T04:20:36.840Z,13.90
2023-02-04T04:23:04.094Z,12.38
2023-02-04T04:25:31.419Z,12.73
2023-02-04T04:27:58.722Z,13.20
2023-02-04T04:30:25.980Z,12.45
2023-02-04T04:32:53.253Z,13.32
2023-02-04T04:35:20.652Z,13.75
2023-02-04T04:37:48.297Z,14.75
2023-02-04T04:40:15.623Z,16.10
2023-02-04T04:42:43.244Z,14.00
2023-02-04T04:45:11.729Z,14.02
2023-02-04T04:47:39.071Z,13.30
2023-02-04T04:50:06.924Z,14.32
2023-02-04T04:52:34.239Z,15.85
2023-02-04T04:55:01.560Z,16.60
2023-02-04T04:57:29.276Z,14.10
2023-02-04T04:59:56.613Z,14.05
2023-02-04T05:02:24.003Z,12.45
2023-02-04T05:04:51.473Z,15.30
2023-02-04T05:07:18.742Z,14.60
2023-02-04T05:09:46.431Z,13.75
2023-02-04T05:12:14.258Z,14.25
2023-02-04T05:14:41.922Z,13.43
2023-02-04T05:17:09.585Z,13.60
2023-02-04T05:19:37.130Z,13.07
2023-02-04T05:22:04.913Z,14.38
2023-02-04T05:24:32.048Z,13.55
2023-02-04T05:26:59.435Z,12.85
2023-02-04T05:29:26.678Z,12.48
2023-02-04T05:31:53.974Z,11.15
2023-02-04T05:34:21.717Z,12.00
2023-02-04T05:36:48.824Z,13.18
2023-02-04T05:39:16.068Z,11.90
2023-02-04T05:41:43.301Z,10.45
2023-02-04T05:44:10.594Z,9.55
2023-02-04T05:46:39.270Z,8.70
2023-02-04T05:49:07.524Z,10.13
2023-02-04T05:51:35.261Z,10.18
2023-02-04T05:54:02.633Z,10.05
2023-02-04T05:56:30.238Z,9.00
2023-02-04T05:58:57.535Z,9.55
2023-02-04T06:01:24.789Z,10.18
2023-02-04T06:03:52.518Z,9.70
2023-02-04T06:06:19.723Z,10.07
2023-02-04T06:08:47.117Z,10.43
2023-02-04T06:11:14.376Z,10.82
2023-02-04T06:13:41.632Z,8.10
2023-02-04T06:16:08.965Z,10.02
2023-02-04T06:18:36.280Z,8.98
2023-02-04T06:21:04.707Z,10.23
2023-02-04T06:23:34.500Z,8.68
2023-02-04T06:26:02.552Z,8.95
2023-02-04T06:28:30.249Z,9.60
2023-02-04T06:30:57.724Z,9.07
2023-02-04T06:33:25.034Z,10.18
2023-02-04T06:35:52.495Z,10.50
2023-02-04T06:38:19.876Z,10.07
2023-02-04T06:40:49.400Z,9.65
2023-02-04T06:43:16.738Z,10.20
2023-02-04T06:45:44.451Z,9.88
2023-02-04T06:48:11.884Z,9.52
2023-02-04T06:50:39.215Z,10.15
2023-02-04T06:53:06.467Z,11.05
2023-02-04T06:55:33.723Z,11.43
2023-02-04T06:58:01.140Z,9.68
2023-02-04T07:00:31.067Z,6.35
2023-02-04T07:02:59.019Z,10.95
2023-02-04T07:05:26.327Z,10.00
2023-02-04T07:07:53.576Z,10.07
2023-02-04T07:10:23.557Z,11.25
2023-02-04T07:12:50.843Z,10.43
2023-02-04T07:15:18.077Z,9.48
2023-02-04T07:17:45.282Z,11.02
2023-02-04T07:20:13.068Z,11.02
2023-02-04T07:22:41.163Z,9.30
2023-02-04T07:25:10.048Z,10.63
2023-02-04T07:27:37.346Z,11.48
2023-02-04T07:30:04.817Z,12.23
2023-02-04T07:32:33.567Z,10.35
2023-02-04T07:35:00.973Z,11.52
2023-02-04T07:37:28.648Z,11.63
2023-02-04T07:39:55.818Z,10.20
2023-02-04T07:42:23.064Z,10.75
2023-02-04T07:44:59.492Z,11.60
2023-02-04T07:47:26.688Z,8.73
2023-02-04T07:49:56.958Z,10.25
2023-02-04T07:52:25.254Z,10.32
2023-02-04T07:54:52.696Z,10.63
2023-02-04T07:57:20.549Z,12.20
2023-02-04T07:59:48.438Z,11.77
2023-02-04T08:02:15.608Z,10.43
2023-02-04T08:04:42.941Z,10.73
2023-02-04T08:07:10.255Z,10.68
2023-02-04T08:09:37.477Z,10.65
2023-02-04T08:12:05.096Z,11.23
2023-02-04T08:14:32.341Z,10.98
2023-02-04T08:17:00.246Z,9.95
2023-02-04T08:19:27.916Z,10.40
2023-02-04T08:21:55.463Z,10.38
2023-02-04T08:24:22.684Z,10.98
2023-02-04T08:26:51.652Z,9.48
2023-02-04T08:29:20.544Z,10.07
2023-02-04T08:31:47.987Z,10.02
2023-02-04T08:34:15.253Z,9.05
2023-02-04T08:36:44.367Z,10.43
2023-02-04T08:39:12.677Z,9.00
2023-02-04T08:41:40.407Z,11.15
2023-02-04T08:44:08.163Z,9.45
2023-02-04T08:46:35.486Z,9.98
2023-02-04T08:49:02.915Z,9.40
2023-02-04T08:51:30.156Z,10.02
2023-02-04T08:53:57.835Z,10.15
2023-02-04T08:56:25.331Z,9.48
2023-02-04T08:58:55.614Z,9.60
2023-02-04T09:01:22.960Z,11.25
2023-02-04T09:03:50.666Z,9.40
2023-02-04T09:06:17.958Z,9.90
2023-02-04T09:08:45.250Z,10.18
2023-02-04T09:11:12.645Z,8.80
2023-02-04T09:13:39.934Z,10.68
2023-02-04T09:16:07.541Z,8.38
2023-02-04T09:18:35.316Z,9.38
2023-02-04T09:21:02.980Z,8.80
2023-02-04T09:23:30.303Z,8.30
2023-02-04T09:25:57.813Z,8.95
2023-02-04T09:28:25.087Z,8.80
2023-02-04T09:30:52.907Z,7.85
2023-02-04T09:33:20.166Z,7.60
2023-02-04T09:35:47.458Z,8.20
2023-02-04T09:38:15.186Z,8.35
2023-02-04T09:40:49.591Z,8.35
2023-02-04T09:43:22.518Z,8.38
2023-02-04T09:45:49.897Z,7.28
2023-02-04T09:48:17.657Z,8.02
2023-02-04T09:50:45.709Z,6.82
2023-02-04T09:53:21.326Z,6.50
2023-02-04T09:55:50.514Z,7.75
2023-02-04T09:58:20.611Z,6.93
2023-02-04T10:01:24.391Z,5.72
2023-02-04T10:03:51.872Z,6.13
2023-02-04T10:06:21.229Z,5.38
2023-02-04T10:08:50.642Z,5.20
2023-02-04T10:11:20.473Z,5.93
2023-02-04T10:13:53.868Z,4.78
2023-02-04T10:16:43.249Z,5.68
2023-02-04T10:19:15.864Z,5.13
2023-02-04T10:21:44.985Z,6.03
2023-02-04T10:24:17.717Z,5.60
2023-02-04T10:26:45.488Z,5.03
2023-02-04T10:29:18.889Z,5.88
2023-02-04T10:31:48.696Z,5.30
2023-02-04T10:34:20.687Z,5.25
2023-02-04T10:36:57.787Z,4.57
2023-02-04T10:39:27.646Z,4.22
2023-02-04T10:42:00.244Z,4.78
2023-02-04T10:44:29.076Z,4.05
2023-02-04T10:47:07.207Z,3.55
2023-02-04T10:49:34.814Z,4.53
2023-02-04T10:52:07.051Z,3.40
2023-02-04T10:54:38.969Z,2.45
2023-02-04T10:57:26.192Z,2.70
2023-02-04T11:00:00.108Z,2.55
2023-02-04T11:02:40.929Z,2.22
2023-02-04T11:05:23.458Z,2.40
2023-02-04T11:07:51.551Z,1.70
2023-02-04T11:10:21.887Z,2.50
2023-02-04T11:12:55.025Z,2.13
2023-02-04T11:15:54.777Z,1.88
2023-02-04T11:18:22.177Z,2.08
2023-02-04T11:20:51.994Z,2.60
2023-02-04T11:23:34.206Z,2.88
2023-02-04T11:26:40.821Z,2.13
2023-02-04T11:29:10.801Z,2.45
2023-02-04T11:31:57.770Z,2.15
2023-02-04T11:34:28.929Z,3.30
2023-02-04T11:36:59.487Z,2.50
2023-02-04T11:39:50.485Z,3.17
2023-02-04T11:42:32.053Z,1.27
2023-02-04T11:45:01.625Z,1.50
2023-02-04T11:47:35.550Z,1.13
2023-02-04T11:50:14.271Z,1.40
2023-02-04T11:52:41.700Z,1.48
2023-02-04T11:55:11.010Z,2.25
2023-02-04T11:57:43.541Z,1.40
2023-02-04T12:00:20.317Z,1.33
2023-02-04T12:03:11.990Z,1.75
2023-02-04T12:05:44.590Z,1.50
2023-02-04T12:08:22.393Z,1.67
2023-02-04T12:10:58.885Z,2.08
2023-02-04T12:13:26.821Z,2.35
2023-02-04T12:16:03.511Z,3.25
2023-02-04T12:18:33.201Z,3.38
2023-02-04T12:21:01.837Z,3.10
2023-02-04T12:23:30.062Z,2.83
2023-02-04T12:25:58.528Z,4.38
2023-02-04T12:28:27.936Z,4.05
2023-02-04T12:30:56.078Z,3.50
2023-02-04T12:33:23.686Z,3.60
2023-02-04T12:35:51.382Z,3.78
2023-02-04T12:38:20.575Z,2.95
2023-02-04T12:40:48.141Z,2.72
2023-02-04T12:43:15.411Z,3.17
2023-02-04T12:45:45.739Z,3.17
2023-02-04T12:48:14.126Z,4.07
2023-02-04T12:50:41.709Z,3.33
2023-02-04T12:53:09.075Z,3.47
2023-02-04T12:55:36.418Z,3.20
2023-02-04T12:58:04.351Z,3.08
2023-02-04T13:00:31.720Z,3.58
2023-02-04T13:02:59.214Z,3.47
2023-02-04T13:05:27.503Z,3.20
2023-02-04T13:07:55.484Z,2.78
2023-02-04T13:10:23.952Z,2.80
2023-02-04T13:12:51.711Z,2.47
2023-02-04T13:15:19.422Z,3.42
2023-02-04T13:17:46.701Z,3.67
2023-02-04T13:20:14.209Z,3.58
2023-02-04T13:22:41.499Z,3.47
2023-02-04T13:25:11.448Z,3.40
2023-02-04T13:27:39.265Z,3.30
2023-02-04T13:30:08.423Z,3.80
2023-02-04T13:32:35.711Z,3.45
2023-02-04T13:35:03.011Z,3.70
2023-02-04T13:37:30.348Z,2.97
2023-02-04T13:39:57.831Z,2.60
2023-02-04T13:42:25.233Z,3.65
2023-02-04T13:44:52.632Z,3.88
2023-02-04T13:47:19.938Z,4.38
2023-02-04T13:49:47.490Z,3.17
2023-02-04T13:52:18.294Z,4.53
2023-02-04T13:54:45.985Z,3.22
2023-02-04T13:57:13.357Z,3.20
2023-02-04T13:59:41.090Z,3.55
2023-02-04T14:02:09.222Z,3.65
2023-02-04T14:04:37.018Z,2.78
2023-02-04T14:07:04.429Z,3.17
2023-02-04T14:09:31.688Z,3.10
2023-02-04T14:11:58.996Z,4.05
2023-02-04T14:14:26.272Z,3.25
2023-02-04T14:16:53.678Z,1.63
2023-02-04T14:19:21.010Z,2.65
2023-02-04T14:21:50.272Z,2.55
2023-02-04T14:24:18.058Z,2.40
2023-02-04T14:26:45.737Z,2.92
2023-02-04T14:29:12.909Z,2.22
2023-02-04T14:31:40.363Z,3.05
2023-02-04T14:34:07.905Z,2.80
2023-02-04T14:36:35.407Z,2.63
2023-02-04T14:39:03.007Z,2.85
2023-02-04T14:41:31.348Z,2.15
2023-02-04T14:43:58.870Z,2.10
2023-02-04T14:46:26.703Z,2.10
2023-02-04T14:48:54.620Z,2.63
2023-02-04T14:51:22.311Z,1.70
2023-02-04T14:53:49.947Z,1.88
2023-02-04T14:56:17.327Z,3.03
2023-02-04T14:58:44.597Z,3.08
2023-02-04T15:01:11.961Z,2.60
2023-02-04T15:03:39.258Z,2.55
2023-02-04T15:06:06.918Z,1.90
2023-02-04T15:08:34.266Z,1.98
2023-02-04T15:11:01.645Z,2.13
2023-02-04T15:13:29.760Z,2.33
2023-02-04T15:15:56.919Z,2.17
2023-02-04T15:18:24.643Z,1.85
2023-02-04T15:20:51.882Z,1.90
2023-02-04T15:23:19.423Z,2.40
2023-02-04T15:25:47.291Z,2.17
2023-02-04T15:28:15.244Z,1.83
2023-02-04T15:30:42.537Z,1.20
2023-02-04T15:33:12.932Z,1.20
2023-02-04T15:35:40.209Z,0.90
2023-02-04T15:38:07.590Z,1.20
2023-02-04T15:40:35.344Z,1.50
2023-02-04T15:43:03.221Z,2.03
2023-02-04T15:45:30.828Z,1.85
2023-02-04T15:47:58.048Z,2.15
2023-02-04T15:50:25.304Z,2.97
2023-02-04T15:52:52.548Z,2.45
2023-02-04T15:55:20.037Z,1.80
2023-02-04T15:57:47.378Z,2.63
2023-02-04T16:00:14.967Z,2.20
2023-02-04T16:02:42.382Z,3.22
2023-02-04T16:05:10.026Z,2.88
2023-02-04T16:07:37.434Z,2.85
2023-02-04T16:10:05.222Z,3.20
2023-02-04T16:12:32.595Z,3.13
2023-02-04T16:14:59.826Z,3.83
2023-02-04T16:17:27.109Z,3.08
2023-02-04T16:19:55.912Z,3.35
2023-02-04T16:22:23.117Z,6.55
2023-02-04T16:24:52.921Z,2.80
2023-02-04T16:27:20.667Z,3.42
2023-02-04T16:29:47.933Z,3.40
2023-02-04T16:32:15.502Z,3.92
2023-02-04T16:34:42.752Z,4.63
2023-02-04T16:37:10.146Z,4.05
2023-02-04T16:39:38.973Z,3.97
2023-02-04T16:42:10.340Z,3.55
2023-02-04T16:44:38.401Z,4.00
2023-02-04T16:47:07.253Z,4.88
2023-02-04T16:49:35.267Z,5.03
2023-02-04T16:52:05.124Z,5.00
2023-02-04T16:54:33.625Z,4.47
2023-02-04T16:57:01.660Z,6.78
2023-02-04T16:59:29.660Z,7.45
2023-02-04T17:02:03.429Z,7.13
2023-02-04T17:04:32.332Z,7.40
2023-02-04T17:07:00.494Z,6.57
2023-02-04T17:09:28.516Z,6.88
2023-02-04T17:11:55.756Z,6.00
2023-02-04T17:14:24.873Z,5.90
2023-02-04T17:16:52.915Z,5.70
2023-02-04T17:19:21.718Z,5.88
2023-02-04T17:21:49.119Z,6.13
2023-02-04T17:24:16.631Z,5.80
2023-02-04T17:26:43.848Z,6.07
2023-02-04T17:29:14.416Z,5.85
2023-02-04T17:31:43.247Z,8.00
2023-02-04T17:34:11.370Z,8.00
2023-02-04T17:36:39.160Z,6.90
2023-02-04T17:39:07.671Z,7.65
2023-02-04T17:41:35.000Z,7.45
2023-02-04T17:44:03.529Z,7.32
2023-02-04T17:46:31.358Z,6.68
2023-02-04T17:48:58.914Z,7.90
2023-02-04T17:51:26.297Z,8.88
2023-02-04T17:53:53.634Z,9.15
2023-02-04T17:56:21.452Z,8.25
2023-02-04T17:58:49.566Z,6.95
2023-02-04T18:01:23.500Z,6.38
2023-02-04T18:03:51.328Z,6.68
2023-02-04T18:06:23.731Z,6.13
2023-02-04T18:08:52.609Z,5.20
2023-02-04T18:11:27.733Z,4.93
2023-02-04T18:14:00.906Z,5.53
2023-02-04T18:16:31.194Z,5.22
2023-02-04T18:19:27.582Z,4.97
2023-02-04T18:21:56.612Z,5.10
2023-02-04T18:24:33.967Z,5.10
2023-02-04T18:27:12.213Z,4.38
2023-02-04T18:29:41.939Z,5.68
2023-02-04T18:32:09.587Z,5.45
2023-02-04T18:34:40.548Z,5.70
2023-02-04T18:37:23.136Z,4.63
2023-02-04T18:39:51.021Z,4.55
2023-02-04T18:42:24.264Z,3.97
2023-02-04T18:44:55.066Z,4.63
2023-02-04T18:47:31.047Z,4.28
2023-02-04T18:50:16.345Z,3.45
2023-02-04T18:52:44.093Z,3.00
2023-02-04T18:55:23.857Z,4.28
2023-02-04T18:57:51.169Z,3.40
2023-02-04T19:00:27.684Z,3.95
2023-02-04T19:03:19.565Z,4.05
2023-02-04T19:05:48.940Z,4.45
2023-02-04T19:08:37.282Z,4.43
2023-02-04T19:11:22.983Z,5.40
2023-02-04T19:13:58.658Z,4.60
2023-02-04T19:16:37.021Z,4.32
2023-02-04T19:19:53.270Z,3.67
2023-02-04T19:22:30.761Z,4.07
2023-02-04T19:25:02.134Z,3.90
2023-02-04T19:27:33.073Z,3.45
2023-02-04T19:30:19.952Z,4.97
2023-02-04T19:32:52.345Z,4.50
2023-02-04T19:35:21.937Z,4.05
2023-02-04T19:37:57.867Z,4.60
2023-02-04T19:40:28.584Z,4.47
2023-02-04T19:43:22.295Z,4.88
2023-02-04T19:45:51.057Z,4.43
2023-02-04T19:48:34.015Z,4.03
2023-02-04T19:51:24.717Z,4.95
2023-02-04T19:53:59.093Z,4.45
2023-02-04T19:56:29.129Z,5.70
2023-02-04T19:58:57.562Z,6.15
2023-02-04T20:01:25.298Z,6.05
2023-02-04T20:03:52.663Z,6.65
2023-02-04T20:06:30.261Z,8.02
2023-02-04T20:08:58.925Z,6.60
2023-02-04T20:11:35.215Z,6.57
2023-02-04T20:14:14.910Z,5.87
2023-02-04T20:17:03.613Z,6.68
2023-02-04T20:19:30.872Z,7.30
2023-02-04T20:22:32.058Z,6.30
2023-02-04T20:25:26.789Z,4.32
2023-02-04T20:27:57.451Z,3.28
2023-02-04T20:30:29.995Z,4.03
2023-02-04T20:33:10.178Z,5.40
2023-02-04T20:35:37.902Z,4.47
2023-02-04T20:38:16.425Z,6.10
2023-02-04T20:40:46.693Z,5.43
2023-02-04T20:43:20.177Z,6.35
2023-02-04T20:45:52.191Z,6.45
2023-02-04T20:48:32.723Z,5.03
2023-02-04T20:51:04.742Z,4.88
2023-02-04T20:53:52.444Z,5.88
2023-02-04T20:56:25.233Z,6.45
2023-02-04T20:59:11.613Z,6.90
2023-02-04T21:01:48.512Z,7.43
2023-02-04T21:04:30.722Z,4.18
2023-02-04T21:07:02.345Z,4.53
2023-02-04T21:09:32.235Z,6.95
2023-02-04T21:12:01.132Z,6.50
2023-02-04T21:14:29.579Z,6.20
2023-02-04T21:16:57.386Z,7.65
2023-02-04T21:19:26.229Z,6.97
2023-02-04T21:21:56.529Z,6.30
2023-02-04T21:24:27.504Z,6.38
2023-02-04T21:26:55.209Z,5.93
2023-02-04T21:29:22.385Z,6.40
2023-02-04T21:31:50.083Z,7.22
2023-02-04T21:34:18.025Z,6.00
2023-02-04T21:36:45.261Z,5.05
2023-02-04T21:39:12.604Z,6.65
2023-02-04T21:41:40.494Z,7.82
2023-02-04T21:44:08.019Z,9.32
2023-02-04T21:46:35.658Z,4.30
2023-02-04T21:49:05.226Z,5.40
2023-02-04T21:51:32.625Z,7.15
2023-02-04T21:54:00.841Z,5.00
2023-02-04T21:56:28.198Z,6.45
2023-02-04T21:58:56.389Z,6.07
2023-02-04T22:01:23.679Z,4.93
2023-02-04T22:03:51.053Z,5.53
2023-02-04T22:06:18.354Z,5.95
2023-02-04T22:08:46.040Z,5.97
2023-02-04T22:11:13.584Z,6.68
2023-02-04T22:13:41.250Z,5.72
2023-02-04T22:16:08.628Z,5.63
2023-02-04T22:18:36.090Z,6.55
2023-02-04T22:21:03.440Z,6.25
2023-02-04T22:23:30.672Z,7.03
2023-02-04T22:25:58.393Z,7.20
2023-02-04T22:28:25.643Z,6.65
2023-02-04T22:30:54.322Z,6.13
2023-02-04T22:33:21.677Z,6.32
2023-02-04T22:35:49.011Z,6.10
2023-02-04T22:38:19.423Z,6.35
2023-02-04T22:40:48.443Z,5.78
2023-02-04T22:43:16.100Z,7.13
2023-02-04T22:45:43.353Z,4.88
2023-02-04T22:48:10.668Z,7.82
2023-02-04T22:50:38.324Z,7.30
2023-02-04T22:53:05.544Z,5.70
2023-02-04T22:55:33.139Z,5.97
2023-02-04T22:58:00.620Z,6.93
2023-02-04T23:00:28.032Z,6.65
2023-02-04T23:02:56.799Z,5.68
2023-02-04T23:05:24.371Z,4.90
2023-02-04T23:07:51.694Z,5.75
2023-02-04T23:10:19.242Z,6.20
2023-02-04T23:12:46.500Z,6.38
2023-02-04T23:15:13.745Z,5.53
2023-02-04T23:17:41.035Z,6.72
2023-02-04T23:20:08.789Z,8.82
2023-02-04T23:22:36.291Z,6.47
2023-02-04T23:25:06.261Z,5.47
2023-02-04T23:27:33.985Z,5.88
2023-02-04T23:30:01.313Z,6.57
2023-02-04T23:32:29.707Z,5.97
2023-02-04T23:34:57.563Z,4.75
2023-02-04T23:37:24.871Z,5.85
2023-02-04T23:39:53.168Z,5.45
2023-02-04T23:42:20.448Z,5.55
2023-02-04T23:44:47.685Z,6.13
2023-02-04T23:47:14.946Z,6.43
2023-02-04T23:49:42.210Z,6.10
2023-02-04T23:52:09.907Z,6.22
2023-02-04T23:54:39.755Z,6.15
2023-02-04T23:57:07.334Z,5.60
2023-02-04T23:59:36.210Z,5.75
